Time;durP1;ratioP1;P1;durP2;ratioP2;P2;SDS_P1;SDS_P2;PMS_P1;PMS_P2;Temp;Humidity;BMP_temperature;BMP_pressure;BME280_temperature;BME280_humidity;BME280_pressure;Samples;Min_cycle;Max_cycle;Signal;HPM_P1;HPM_P2
2022/01/13 00:01:56;;;;;;;6.70;3.50;;;;;;;-12.60;67.90;100192.02;105146;1271;75145;-22
2022/01/13 00:04:25;;;;;;;4.90;2.40;;;;;;;-13.00;68.98;100192.97;105068;1271;74289;-22
2022/01/13 00:06:53;;;;;;;5.80;3.30;;;;;;;-12.67;68.62;100196.01;105159;1271;62502;-22
2022/01/13 00:09:22;;;;;;;9.90;5.00;;;;;;;-12.13;67.58;100199.11;105186;1271;62052;-22
2022/01/13 00:11:51;;;;;;;8.10;3.90;;;;;;;-12.08;67.02;100195.07;105102;1271;75591;-22
2022/01/13 00:22:18;;;;;;;9.40;4.70;;;;;;;-12.18;68.63;100181.08;104986;1271;61071;-22
2022/01/13 00:24:50;;;;;;;9.20;4.80;;;;;;;-11.84;67.44;100181.31;105169;1271;75547;-22
2022/01/13 00:27:21;;;;;;;8.70;4.90;;;;;;;-11.98;67.37;100178.08;105149;1271;76023;-22
2022/01/13 00:29:50;;;;;;;10.10;4.80;;;;;;;-12.35;68.25;100177.05;105129;1271;74483;-22
2022/01/13 00:32:20;;;;;;;5.40;2.50;;;;;;;-12.71;69.43;100179.50;105082;1271;62198;-22
2022/01/13 00:34:49;;;;;;;4.10;2.30;;;;;;;-12.43;69.70;100180.66;105092;1271;62474;-25
2022/01/13 00:37:17;;;;;;;10.60;3.80;;;;;;;-11.74;68.19;100178.05;105186;1274;75389;-22
2022/01/13 00:39:45;;;;;;;10.60;5.50;;;;;;;-11.68;67.27;100172.02;105118;1271;74313;-23
2022/01/13 00:42:14;;;;;;;10.40;3.90;;;;;;;-11.97;67.76;100169.40;105124;1271;73566;-23
2022/01/13 00:44:43;;;;;;;9.60;4.30;;;;;;;-12.40;68.95;100171.40;105149;1271;62004;-23
2022/01/13 00:47:12;;;;;;;3.80;1.50;;;;;;;-12.67;70.11;100177.27;105184;1271;61114;-23
2022/01/13 00:49:40;;;;;;;10.20;4.30;;;;;;;-12.17;69.99;100176.70;105092;1271;75561;-23
2022/01/13 00:52:09;;;;;;;4.30;3.60;;;;;;;-11.62;67.91;100177.88;104924;1271;75950;-23
2022/01/13 00:54:39;;;;;;;4.90;3.10;;;;;;;-11.62;67.70;100169.49;104949;1271;72846;-22
2022/01/13 00:57:08;;;;;;;9.00;4.80;;;;;;;-11.88;67.84;100164.77;104885;1271;61093;-23
2022/01/13 00:59:36;;;;;;;4.80;2.10;;;;;;;-12.18;68.56;100157.78;105119;1271;61100;-24
2022/01/13 01:02:05;;;;;;;4.90;1.60;;;;;;;-12.31;69.51;100158.59;105130;1271;75638;-23
2022/01/13 01:04:34;;;;;;;4.00;2.60;;;;;;;-11.61;70.15;100146.73;105124;1271;75947;-24
2022/01/13 01:07:03;;;;;;;6.80;3.50;;;;;;;-11.01;67.89;100139.98;105071;1274;74105;-22
2022/01/13 01:09:40;;;;;;;8.70;2.80;;;;;;;-11.02;67.67;100136.95;104958;1271;61264;-22
2022/01/13 01:12:10;;;;;;;4.80;4.10;;;;;;;-11.34;68.05;100133.00;105102;1271;61726;-22
2022/01/13 01:14:45;;;;;;;7.00;5.00;;;;;;;-11.71;69.17;100130.06;105150;1271;75653;-22
2022/01/13 01:17:15;;;;;;;10.00;3.30;;;;;;;-11.85;70.41;100131.85;105136;1271;74511;-22
2022/01/13 01:19:47;;;;;;;8.70;3.70;;;;;;;-11.21;69.67;100130.63;105133;1273;74524;-22
2022/01/13 01:27:40;;;;;;;5.50;2.50;;;;;;;-10.99;67.72;100110.02;105134;1271;75643;-22
2022/01/13 01:30:21;;;;;;;10.60;4.00;;;;;;;-11.35;69.47;100110.84;105092;1271;75491;-24
2022/01/13 01:32:50;;;;;;;3.40;1.80;;;;;;;-11.60;71.08;100111.90;104846;1272;74239;-22
2022/01/13 01:35:19;;;;;;;5.70;2.40;;;;;;;-10.91;70.34;100110.52;104988;1271;61016;-23
2022/01/13 01:37:47;;;;;;;10.00;5.20;;;;;;;-10.28;68.57;100105.96;105083;1271;62034;-22
2022/01/13 01:40:15;;;;;;;7.50;3.90;;;;;;;-10.25;68.06;100099.48;105121;1271;75381;-22
2022/01/13 01:42:46;;;;;;;7.90;2.90;;;;;;;-10.41;68.48;100087.92;104803;1271;436972;-22
2022/01/13 01:45:15;;;;;;;7.90;4.00;;;;;;;-10.70;69.46;100088.34;105111;1271;74407;-22
2022/01/13 01:47:45;;;;;;;4.40;2.80;;;;;;;-10.97;70.48;100081.69;104996;1271;61120;-23
2022/01/13 01:50:23;;;;;;;8.50;3.20;;;;;;;-10.87;71.31;100078.73;104939;1271;62210;-22
2022/01/13 01:52:53;;;;;;;5.40;2.10;;;;;;;-9.96;69.86;100076.66;105068;1272;74575;-22
2022/01/13 01:55:21;;;;;;;7.10;4.90;;;;;;;-9.69;68.52;100080.35;105143;1274;76327;-23
2022/01/13 01:57:53;;;;;;;7.10;4.20;;;;;;;-9.85;68.98;100081.75;105159;1271;72672;-22
2022/01/13 02:00:26;;;;;;;7.30;3.90;;;;;;;-10.11;69.90;100083.42;105114;1271;61731;-22
2022/01/13 02:02:55;;;;;;;7.20;4.70;;;;;;;-10.38;71.24;100084.27;105105;1271;61008;-22
2022/01/13 02:05:24;;;;;;;3.60;2.30;;;;;;;-10.62;72.28;100071.23;105144;1271;75263;-22
2022/01/13 02:07:52;;;;;;;4.50;2.20;;;;;;;-10.21;72.47;100067.80;105149;1271;75953;-22
2022/01/13 02:10:21;;;;;;;7.60;3.20;;;;;;;-9.36;70.58;100073.49;105111;1271;74405;-22
2022/01/13 02:12:52;;;;;;;10.20;5.20;;;;;;;-9.13;69.36;100075.20;104931;1271;61288;-23
2022/01/13 02:15:59;;;;;;;8.70;4.80;;;;;;;-9.35;69.68;100081.09;105001;1271;63154;-22
2022/01/13 02:18:30;;;;;;;7.60;4.50;;;;;;;-9.68;71.15;100082.38;105156;1271;73081;-22
2022/01/13 02:20:59;;;;;;;6.40;2.90;;;;;;;-9.92;72.10;100076.58;105107;1271;75925;-22
2022/01/13 02:23:32;;;;;;;5.40;2.00;;;;;;;-10.12;72.99;100072.00;105092;1271;73408;-22
2022/01/13 02:26:09;;;;;;;8.20;3.60;;;;;;;-9.77;73.56;100075.66;105066;1271;62692;-23
2022/01/13 02:28:38;;;;;;;10.50;4.30;;;;;;;-8.99;71.86;100081.29;105124;1271;61253;-22
2022/01/13 02:31:07;;;;;;;14.00;5.50;;;;;;;-8.74;70.84;100068.84;105140;1271;75557;-23
2022/01/13 02:33:35;;;;;;;11.70;5.20;;;;;;;-8.84;70.92;100062.66;105082;1271;76034;-25
2022/01/13 02:36:04;;;;;;;6.70;4.60;;;;;;;-9.11;71.48;100060.58;104864;1271;72496;-22
2022/01/13 02:38:33;;;;;;;12.70;5.60;;;;;;;-9.32;72.10;100052.04;104655;1274;61169;-23
2022/01/13 02:41:03;;;;;;;8.60;4.40;;;;;;;-9.51;72.71;100047.87;105000;1271;62077;-24
2022/01/13 02:43:33;;;;;;;9.60;3.80;;;;;;;-9.65;73.80;100036.70;105106;1272;75384;-23
2022/01/13 02:48:59;;;;;;;5.50;2.20;;;;;;;-8.18;70.91;100025.35;105154;1271;73194;-23
2022/01/13 02:51:28;;;;;;;9.20;3.90;;;;;;;-8.18;70.31;100023.00;105124;1271;61217;-23
2022/01/13 02:53:56;;;;;;;11.30;5.60;;;;;;;-8.47;70.97;100028.93;104931;1271;61782;-22
2022/01/13 02:56:25;;;;;;;14.70;7.00;;;;;;;-8.77;72.16;100032.61;105086;1272;75621;-23
2022/01/13 02:58:54;;;;;;;13.30;7.00;;;;;;;-9.12;73.57;100028.61;104980;1271;75035;-23
2022/01/13 03:01:23;;;;;;;10.80;3.60;;;;;;;-9.34;74.91;100032.48;105054;1271;74430;-22
2022/01/13 03:03:53;;;;;;;14.30;5.70;;;;;;;-9.42;75.56;100036.58;105138;1271;62548;-22
2022/01/13 03:08:27;;;;;;;9.20;5.20;;;;;;;-8.15;72.52;100030.77;101725;1309;600470;-23
2022/01/13 03:10:56;;;;;;;4.60;3.30;;;;;;;-7.96;71.19;100028.30;104424;1284;61167;-23
2022/01/13 03:13:27;;;;;;;11.00;5.40;;;;;;;-8.08;71.16;100021.91;104381;1284;62396;-22
2022/01/13 03:15:56;;;;;;;5.40;2.30;;;;;;;-8.39;72.01;100020.42;104322;1283;73120;-24
2022/01/13 03:18:24;;;;;;;7.10;4.40;;;;;;;-8.61;72.80;100020.36;104391;1282;76327;-21
2022/01/13 03:20:53;;;;;;;9.10;4.50;;;;;;;-8.86;74.03;100015.48;104329;1284;74363;-24
2022/01/13 03:23:21;;;;;;;9.80;5.20;;;;;;;-9.07;74.67;100013.03;104072;1284;61688;-24
2022/01/13 03:25:49;;;;;;;6.40;3.00;;;;;;;-9.03;75.70;100014.59;104467;1283;61730;-23
2022/01/13 03:28:28;;;;;;;10.60;4.20;;;;;;;-8.22;74.17;100017.22;104385;1284;72004;-25
2022/01/13 03:31:00;;;;;;;8.20;4.80;;;;;;;-7.73;72.21;100011.79;104476;1284;75979;-25
2022/01/13 03:33:28;;;;;;;13.40;6.20;;;;;;;-7.77;71.94;100009.73;104226;1284;74477;-25
2022/01/13 03:35:57;;;;;;;23.10;6.90;;;;;;;-8.02;72.63;100010.17;104451;1284;61048;-26
2022/01/13 03:38:26;;;;;;;16.10;6.60;;;;;;;-8.36;74.19;100014.55;104402;1284;62134;-23
2022/01/13 03:40:54;;;;;;;9.70;5.10;;;;;;;-8.51;74.97;100010.36;104265;1284;73911;-23
2022/01/13 03:43:22;;;;;;;11.70;5.60;;;;;;;-8.70;76.26;100004.59;104532;1284;75689;-23
2022/01/13 03:45:51;;;;;;;13.90;6.70;;;;;;;-8.86;76.98;99996.65;104512;1284;74411;-23
2022/01/13 03:48:19;;;;;;;6.00;3.50;;;;;;;-8.59;76.85;99991.23;104458;1284;63744;-22
2022/01/13 03:50:47;;;;;;;11.40;5.80;;;;;;;-7.78;74.95;99995.23;104409;1284;61086;-23
2022/01/13 03:53:28;;;;;;;6.40;4.50;;;;;;;-7.42;73.18;99997.35;104494;1284;73447;-23
2022/01/13 03:56:41;;;;;;;12.70;5.60;;;;;;;-7.51;73.21;99996.95;104347;1284;75095;-23
2022/01/13 03:59:37;;;;;;;7.30;4.30;;;;;;;-7.80;74.56;99984.91;104125;1284;72623;-23
2022/01/13 04:02:15;;;;;;;9.50;4.30;;;;;;;-8.04;75.72;99988.42;104271;1284;61378;-21
2022/01/13 04:04:45;;;;;;;10.70;5.70;;;;;;;-8.26;76.61;99980.12;104232;1283;61778;-22
2022/01/13 04:07:19;;;;;;;10.60;5.20;;;;;;;-8.39;77.36;99975.77;104342;1283;74766;-22
2022/01/13 04:09:47;;;;;;;12.70;5.80;;;;;;;-8.52;78.17;99984.08;104244;1284;72384;-22
2022/01/13 04:12:19;;;;;;;14.20;7.60;;;;;;;-8.24;78.00;99983.18;105155;1271;72490;-22
2022/01/13 04:15:02;;;;;;;16.20;7.30;;;;;;;-7.28;74.88;99985.98;104839;1274;61822;-22
2022/01/13 04:17:31;;;;;;;13.90;7.20;;;;;;;-7.00;73.35;99977.86;104827;1271;61087;-22
2022/01/13 04:19:59;;;;;;;16.00;7.40;;;;;;;-7.05;72.88;99970.25;104964;1271;74748;-23
2022/01/13 04:22:28;;;;;;;12.20;6.20;;;;;;;-7.27;73.48;99963.71;105053;1270;75720;-24
2022/01/13 04:24:56;;;;;;;14.70;7.10;;;;;;;-7.53;74.12;99959.83;104630;1274;72396;-24
2022/01/13 04:27:30;;;;;;;6.80;3.80;;;;;;;-7.72;74.99;99950.09;104880;1271;61142;-24
2022/01/13 04:32:59;;;;;;;4.60;2.60;;;;;;;-8.05;75.99;99945.93;104905;1271;74833;-22
2022/01/13 04:35:27;;;;;;;12.20;6.20;;;;;;;-8.16;76.38;99936.73;105114;1271;75740;-22
2022/01/13 04:37:56;;;;;;;8.80;3.80;;;;;;;-7.91;76.92;99930.71;105152;1271;74455;-22
2022/01/13 04:40:24;;;;;;;16.30;6.60;;;;;;;-7.00;75.09;99932.45;105094;1271;61405;-22
2022/01/13 04:42:55;;;;;;;16.70;8.40;;;;;;;-6.53;73.06;99929.56;105073;1274;61086;-22
2022/01/13 04:45:24;;;;;;;12.20;5.90;;;;;;;-6.54;72.79;99929.06;105087;1271;73691;-22
2022/01/13 04:47:53;;;;;;;11.60;6.00;;;;;;;-6.70;73.09;99934.09;104982;1271;74771;-22
2022/01/13 04:50:23;;;;;;;9.70;5.20;;;;;;;-6.93;73.61;99930.11;104968;1271;74432;-23
2022/01/13 04:52:51;;;;;;;10.20;4.50;;;;;;;-7.11;74.14;99919.58;104866;1274;61101;-23
2022/01/13 04:55:24;;;;;;;8.90;4.50;;;;;;;-7.31;75.40;99923.19;104722;1274;62160;-23
2022/01/13 04:57:53;;;;;;;10.20;5.20;;;;;;;-7.49;76.41;99932.36;104962;1271;73508;-23
2022/01/13 05:00:22;;;;;;;13.60;7.50;;;;;;;-7.62;77.74;99931.27;104980;1274;76156;-23
2022/01/13 05:02:50;;;;;;;10.30;4.90;;;;;;;-7.69;77.82;99922.95;105187;1271;74463;-23
2022/01/13 05:05:19;;;;;;;9.20;4.60;;;;;;;-7.72;78.35;99917.38;105176;1271;61961;-23
2022/01/13 05:07:48;;;;;;;11.30;5.40;;;;;;;-7.26;77.25;99904.98;105090;1271;61108;-24
2022/01/13 05:10:17;;;;;;;10.70;5.00;;;;;;;-6.33;74.65;99905.27;105070;1271;74810;-24
2022/01/13 05:12:47;;;;;;;8.40;4.10;;;;;;;-5.98;73.06;99902.58;105155;1271;76113;-23
2022/01/13 05:15:27;;;;;;;16.40;6.80;;;;;;;-6.02;72.67;99899.20;104996;1271;73346;-23
2022/01/13 05:20:47;;;;;;;13.40;6.60;;;;;;;-6.53;73.86;99917.07;104990;1271;61089;-23
2022/01/13 05:23:16;;;;;;;10.30;5.40;;;;;;;-6.74;73.73;99907.39;104861;1272;74640;-23
2022/01/13 05:25:44;;;;;;;14.80;8.10;;;;;;;-6.93;74.52;99904.11;104946;1271;75950;-23
2022/01/13 05:28:12;;;;;;;14.10;5.40;;;;;;;-7.10;75.61;99900.35;104899;1271;73895;-23
2022/01/13 05:30:41;;;;;;;11.90;6.60;;;;;;;-7.23;75.52;99897.58;105113;1271;61138;-24
2022/01/13 05:33:09;;;;;;;6.50;3.60;;;;;;;-7.34;76.82;99899.05;105136;1272;61018;-23
2022/01/13 05:35:38;;;;;;;6.50;4.80;;;;;;;-7.29;76.99;99897.05;105128;1271;74595;-23
2022/01/13 05:38:07;;;;;;;5.90;3.70;;;;;;;-6.48;75.72;99892.08;105146;1271;75105;-23
2022/01/13 05:40:36;;;;;;;11.50;5.50;;;;;;;-5.87;73.26;99872.95;104921;1271;71287;-23
2022/01/13 05:43:04;;;;;;;8.60;5.90;;;;;;;-5.81;72.99;99871.27;104806;1274;61413;-24
2022/01/13 05:45:40;;;;;;;;;;;;;;;-5.99;72.49;99866.39;105162;1271;62160;-24
2022/01/13 05:48:09;;;;;;;10.40;6.40;;;;;;;-6.25;74.04;99862.70;105090;1272;74724;-23
2022/01/13 05:50:37;;;;;;;11.60;5.10;;;;;;;-6.50;74.53;99855.23;104960;1271;75864;-23
2022/01/13 05:53:05;;;;;;;15.30;6.30;;;;;;;-6.66;75.12;99849.66;104835;1271;72385;-22
2022/01/13 05:55:34;;;;;;;15.70;7.00;;;;;;;-6.83;76.06;99844.88;104902;1271;61232;-23
2022/01/13 05:58:02;;;;;;;10.10;4.70;;;;;;;-6.90;76.44;99846.73;105139;1271;61271;-24
2022/01/13 06:00:31;;;;;;;18.50;7.50;;;;;;;-6.98;76.47;99850.74;105144;1271;73104;-24
2022/01/13 06:03:00;;;;;;;9.60;4.10;;;;;;;-6.61;76.56;99841.20;104995;1271;73659;-21
2022/01/13 06:05:29;;;;;;;10.10;5.30;;;;;;;-5.79;73.60;99832.02;104985;1271;73370;-23
2022/01/13 06:07:57;;;;;;;11.70;5.70;;;;;;;-5.49;72.65;99826.02;104984;1271;61035;-23
2022/01/13 06:10:27;;;;;;;10.00;4.60;;;;;;;-5.58;72.67;99826.55;105147;1271;60997;-24
2022/01/13 06:12:56;;;;;;;9.70;5.40;;;;;;;-5.80;73.18;99841.49;105144;1271;74433;-24
2022/01/13 06:15:24;;;;;;;11.80;5.40;;;;;;;-5.97;73.64;99849.97;105172;1271;75044;-23
2022/01/13 06:17:54;;;;;;;7.00;3.90;;;;;;;-6.16;74.61;99848.33;104936;1274;74611;-24
2022/01/13 06:20:23;;;;;;;11.00;5.70;;;;;;;-6.32;75.23;99841.90;105109;1271;62109;-21
2022/01/13 06:22:51;;;;;;;7.80;4.70;;;;;;;-6.44;75.48;99831.75;105169;1271;61019;-22
2022/01/13 06:25:19;;;;;;;13.10;7.30;;;;;;;-6.55;76.11;99822.61;105127;1271;73967;-27
2022/01/13 06:27:48;;;;;;;13.50;5.30;;;;;;;-6.40;76.26;99819.42;105176;1272;73832;-23
2022/01/13 06:30:37;;;;;;;9.80;5.10;;;;;;;-5.51;74.16;99821.63;105083;1271;73474;-23
2022/01/13 06:33:05;;;;;;;7.90;4.30;;;;;;;-5.15;72.88;99827.08;105065;1271;61164;-23
2022/01/13 06:35:33;;;;;;;15.20;6.70;;;;;;;-5.26;72.56;99835.58;105134;1272;61217;-23
2022/01/13 06:38:02;;;;;;;7.90;4.70;;;;;;;-5.40;72.70;99836.31;105152;1271;74784;-23
2022/01/13 06:40:31;;;;;;;11.10;6.10;;;;;;;-5.58;72.96;99836.54;105083;1271;75794;-23
2022/01/13 06:42:59;;;;;;;10.00;5.70;;;;;;;-5.73;73.64;99833.19;104948;1271;74337;-23
2022/01/13 06:45:28;;;;;;;10.80;5.80;;;;;;;-5.88;74.03;99805.66;104886;1271;61138;-23
2022/01/13 06:47:56;;;;;;;9.70;5.70;;;;;;;-6.02;74.64;99809.42;105136;1271;61105;-23
2022/01/13 06:50:25;;;;;;;12.30;7.80;;;;;;;-6.11;75.71;99820.59;105112;1271;73712;-23
2022/01/13 06:52:56;;;;;;;5.50;3.70;;;;;;;-6.16;75.53;99821.60;105080;1271;75831;-23
2022/01/13 06:55:24;;;;;;;13.40;7.00;;;;;;;-5.58;74.71;99818.76;105151;1271;73591;-23
2022/01/13 06:58:06;;;;;;;8.80;4.40;;;;;;;-4.84;72.13;99819.29;105119;1271;61150;-25
2022/01/13 07:00:37;;;;;;;14.80;7.60;;;;;;;-4.71;71.37;99810.90;105169;1271;62013;-22
2022/01/13 07:03:05;;;;;;;6.30;4.20;;;;;;;-4.78;71.99;99801.29;105097;1271;74561;-24
2022/01/13 07:05:34;;;;;;;5.80;4.20;;;;;;;-4.94;72.39;99802.91;104938;1271;76039;-22
2022/01/13 07:08:03;;;;;;;11.50;6.40;;;;;;;-5.15;72.67;99803.86;104891;1271;74131;-22
2022/01/13 07:10:32;;;;;;;7.70;5.50;;;;;;;-5.27;73.90;99803.23;104828;1273;61147;-22
2022/01/13 07:13:00;;;;;;;10.60;5.70;;;;;;;-5.33;74.07;99802.95;105080;1271;61035;-22
2022/01/13 07:15:31;;;;;;;19.60;10.20;;;;;;;-5.46;74.42;99800.79;105020;1271;74917;-22
2022/01/13 07:18:00;;;;;;;10.70;5.40;;;;;;;-5.42;75.01;99803.64;104963;1272;75958;-22
2022/01/13 07:20:28;;;;;;;14.30;7.70;;;;;;;-4.65;73.14;99803.23;104789;1273;74614;-22
2022/01/13 07:22:58;;;;;;;12.10;6.20;;;;;;;-4.41;71.07;99787.63;104895;1271;61143;-22
2022/01/13 07:25:26;;;;;;;11.50;5.50;;;;;;;-4.45;71.78;99778.19;105121;1271;61041;-22
2022/01/13 07:27:55;;;;;;;12.80;6.40;;;;;;;-4.73;72.93;99777.36;105019;1271;74375;-22
2022/01/13 07:30:23;;;;;;;14.70;6.30;;;;;;;-4.87;73.19;99779.48;105118;1272;72530;-22
2022/01/13 07:32:51;;;;;;;11.60;6.70;;;;;;;-5.06;73.55;99777.75;104939;1271;73400;-21
2022/01/13 07:35:19;;;;;;;13.00;6.80;;;;;;;-5.28;74.62;99766.70;105039;1271;61205;-23
2022/01/13 07:37:48;;;;;;;12.40;6.30;;;;;;;-5.46;75.35;99756.12;104920;1271;61249;-24
2022/01/13 07:40:17;;;;;;;10.70;6.20;;;;;;;-5.61;76.31;99745.02;105050;1274;75378;-22
2022/01/13 07:42:46;;;;;;;10.60;5.70;;;;;;;-5.28;75.90;99734.19;105088;1271;75055;-22
2022/01/13 07:45:16;;;;;;;16.50;8.70;;;;;;;-4.66;73.47;99720.88;105170;1271;74110;-22
2022/01/13 07:47:45;;;;;;;13.70;7.90;;;;;;;-4.40;72.49;99712.52;104800;1271;61323;-22
2022/01/13 07:50:14;;;;;;;11.10;6.30;;;;;;;-4.44;72.45;99709.17;105082;1271;61115;-23
2022/01/13 07:52:42;;;;;;;13.50;6.70;;;;;;;-4.55;72.92;99705.54;104743;1272;73541;-22
2022/01/13 07:55:12;;;;;;;14.50;7.70;;;;;;;-4.65;73.31;99701.39;104862;1271;75829;-23
2022/01/13 07:57:40;;;;;;;17.40;8.80;;;;;;;-4.81;73.80;99701.52;104923;1271;73612;-23
2022/01/13 08:00:11;;;;;;;14.00;6.80;;;;;;;-5.01;74.75;99706.08;105054;1271;61121;-23
2022/01/13 08:02:42;;;;;;;20.60;9.80;;;;;;;-5.11;75.49;99704.96;104883;1272;61124;-22
2022/01/13 08:05:10;;;;;;;16.10;7.00;;;;;;;-4.90;75.50;99718.88;105062;1271;75574;-23
2022/01/13 08:07:39;;;;;;;13.10;6.20;;;;;;;-4.15;73.12;99733.14;104773;1271;74867;-22
2022/01/13 08:10:07;;;;;;;13.80;6.90;;;;;;;-4.02;72.36;99738.44;104859;1271;74746;-22
2022/01/13 08:12:37;;;;;;;13.00;6.60;;;;;;;-4.08;72.29;99740.53;104868;1271;61163;-22
2022/01/13 08:15:12;;;;;;;18.30;8.30;;;;;;;-4.23;72.69;99733.21;104667;1271;61844;-21
2022/01/13 08:20:29;;;;;;;16.80;8.10;;;;;;;-4.57;74.07;99731.48;104840;1271;76378;-24
2022/01/13 08:22:58;;;;;;;14.10;7.40;;;;;;;-4.70;74.79;99738.36;104769;1272;72148;-23
2022/01/13 08:25:26;;;;;;;14.70;8.10;;;;;;;-4.80;74.67;99739.13;104738;1272;61175;-23
2022/01/13 08:27:54;;;;;;;17.70;8.40;;;;;;;-4.56;74.45;99742.66;104902;1271;62055;-23
2022/01/13 08:30:23;;;;;;;17.70;9.70;;;;;;;-3.75;72.39;99746.44;104940;1271;74359;-25
2022/01/13 08:32:51;;;;;;;19.10;8.60;;;;;;;-3.47;70.92;99756.11;104936;1271;75799;-24
2022/01/13 08:35:19;;;;;;;21.40;8.70;;;;;;;-3.57;71.14;99765.25;104886;1271;73671;-24
2022/01/13 08:37:48;;;;;;;21.00;10.30;;;;;;;-3.73;71.48;99763.56;104755;1274;61951;-22
2022/01/13 08:40:16;;;;;;;16.40;8.50;;;;;;;-3.90;72.60;99755.27;104973;1271;61819;-24
2022/01/13 08:42:45;;;;;;;25.30;11.00;;;;;;;-4.12;73.11;99747.69;105067;1271;74364;-24
2022/01/13 08:45:13;;;;;;;18.30;10.20;;;;;;;-4.29;73.95;99744.80;104945;1271;75966;-23
2022/01/13 08:47:44;;;;;;;20.20;9.50;;;;;;;-4.37;74.08;99749.61;104183;1271;1003127;-23
2022/01/13 08:50:13;;;;;;;28.90;10.00;;;;;;;-4.37;74.98;99757.92;104777;1271;61062;-23
2022/01/13 08:52:44;;;;;;;17.40;9.90;;;;;;;-4.16;74.29;99745.01;104888;1271;61139;-24
2022/01/13 08:55:12;;;;;;;14.80;6.00;;;;;;;-3.61;72.30;99754.44;104860;1271;75636;-23
2022/01/13 08:57:41;;;;;;;12.90;7.60;;;;;;;-3.48;71.40;99753.92;105051;1271;75825;-23
2022/01/13 09:00:10;;;;;;;16.90;8.10;;;;;;;-3.66;72.31;99744.13;105130;1271;74153;-23
2022/01/13 09:02:43;;;;;;;16.30;9.70;;;;;;;-3.87;72.89;99727.73;105093;1271;61256;-22
2022/01/13 09:05:13;;;;;;;19.40;9.90;;;;;;;-4.06;73.85;99713.04;104920;1271;62277;-23
2022/01/13 09:07:42;;;;;;;12.70;7.00;;;;;;;-4.29;74.81;99708.86;105131;1272;73861;-23
2022/01/13 09:10:13;;;;;;;31.00;8.70;;;;;;;-4.40;75.33;99700.33;105163;1271;76021;-23
2022/01/13 09:12:41;;;;;;;17.70;8.80;;;;;;;-4.48;76.04;99695.48;105109;1271;73813;-23
2022/01/13 09:15:30;;;;;;;17.80;9.00;;;;;;;-4.16;75.82;99693.11;105088;1271;61128;-23
2022/01/13 09:18:06;;;;;;;18.90;8.40;;;;;;;-3.56;73.57;99692.40;104864;1271;61207;-23
2022/01/13 09:20:38;;;;;;;22.70;12.40;;;;;;;-3.51;73.15;99699.46;104928;1271;75606;-23
2022/01/13 09:23:08;;;;;;;15.80;8.00;;;;;;;-3.72;74.18;99699.40;104736;1271;75981;-23
2022/01/13 09:25:36;;;;;;;23.70;10.80;;;;;;;-3.90;75.57;99701.98;105112;1271;74571;-23
2022/01/13 09:28:06;;;;;;;22.20;10.30;;;;;;;-4.16;76.60;99677.18;104937;1274;61134;-23
2022/01/13 09:30:34;;;;;;;17.50;9.30;;;;;;;-4.32;77.73;99682.61;104848;1271;62074;-23
2022/01/13 09:33:03;;;;;;;25.80;11.50;;;;;;;-4.28;78.06;99676.11;104923;1271;75435;-22
2022/01/13 09:35:32;;;;;;;29.10;12.70;;;;;;;-3.85;77.18;99677.16;104693;1274;74662;-23
2022/01/13 09:38:01;;;;;;;24.50;11.60;;;;;;;-3.66;76.54;99675.39;104695;1274;74359;-22
2022/01/13 09:40:29;;;;;;;21.80;10.40;;;;;;;-3.67;76.19;99659.97;104819;1271;61144;-23
2022/01/13 09:42:58;;;;;;;26.30;11.60;;;;;;;-3.81;76.70;99650.80;105162;1271;61104;-23
2022/01/13 09:45:26;;;;;;;28.80;14.60;;;;;;;-3.99;77.27;99648.49;105143;1271;75864;-23
2022/01/13 09:47:54;;;;;;;21.60;10.50;;;;;;;-4.22;78.07;99631.46;105094;1274;75533;-23
2022/01/13 09:50:25;;;;;;;26.50;12.10;;;;;;;-3.95;78.22;99640.63;105135;1271;72392;-23
2022/01/13 09:52:53;;;;;;;18.50;9.60;;;;;;;-3.45;76.01;99622.81;105119;1271;61192;-23
2022/01/13 09:55:22;;;;;;;16.10;10.10;;;;;;;-3.22;75.11;99619.23;105011;1271;61113;-23
2022/01/13 09:57:51;;;;;;;20.10;10.90;;;;;;;-3.41;75.29;99595.42;105023;1271;75499;-23
2022/01/13 10:00:24;;;;;;;21.50;11.00;;;;;;;-3.68;76.77;99586.66;104929;1271;75318;-23
2022/01/13 10:02:53;;;;;;;22.10;11.10;;;;;;;-3.78;77.12;99582.23;105082;1271;74239;-23
2022/01/13 10:05:22;;;;;;;18.70;10.00;;;;;;;-3.89;77.64;99577.29;104850;1271;61125;-22
2022/01/13 10:07:52;;;;;;;23.50;10.20;;;;;;;-3.76;77.88;99578.28;104592;1274;61019;-23
2022/01/13 10:10:28;;;;;;;25.60;10.40;;;;;;;-3.27;75.87;99566.67;104801;1272;74343;-23
2022/01/13 10:13:07;;;;;;;21.60;11.10;;;;;;;-3.13;75.20;99566.13;104610;1274;74928;-23
2022/01/13 10:18:42;;;;;;;25.80;12.70;;;;;;;-3.24;75.86;99566.98;104757;1271;61080;-24
2022/01/13 10:21:12;;;;;;;19.30;8.70;;;;;;;-3.48;76.94;99565.49;104807;1271;61113;-23
2022/01/13 10:24:12;;;;;;;19.70;10.30;;;;;;;-3.71;77.74;99569.73;104752;1271;76188;-23
2022/01/13 10:26:55;;;;;;;26.90;12.80;;;;;;;-3.56;78.02;99571.88;104953;1274;74693;-23
2022/01/13 10:29:35;;;;;;;20.90;10.30;;;;;;;-3.00;76.18;99568.27;104591;1274;73531;-23
2022/01/13 10:32:04;;;;;;;25.60;11.60;;;;;;;-2.78;75.08;99561.26;104681;1271;61134;-23
2022/01/13 10:34:35;;;;;;;27.90;12.20;;;;;;;-3.05;75.90;99545.91;105017;1274;62059;-23
2022/01/13 10:37:15;;;;;;;19.00;10.00;;;;;;;-3.27;76.76;99538.33;104728;1272;75731;-23
2022/01/13 10:39:49;;;;;;;22.50;12.40;;;;;;;-3.43;77.92;99529.23;104733;1271;75851;-23
2022/01/13 10:45:17;;;;;;;22.00;12.10;;;;;;;-3.47;78.83;99509.79;105087;1271;61105;-22
2022/01/13 10:47:50;;;;;;;28.60;12.20;;;;;;;-3.03;77.01;99513.12;105111;1271;62019;-23
2022/01/13 10:50:20;;;;;;;17.80;9.70;;;;;;;-2.98;76.58;99513.19;104805;1271;75832;-23
2022/01/13 10:52:51;;;;;;;33.10;15.50;;;;;;;-3.19;77.48;99517.63;104860;1272;76036;-23
2022/01/13 10:55:22;;;;;;;17.70;9.10;;;;;;;-3.41;78.84;99518.17;104853;1271;74339;-23
2022/01/13 10:58:14;;;;;;;35.20;16.10;;;;;;;-3.55;79.63;99513.98;104673;1271;61036;-23
2022/01/13 11:00:43;;;;;;;27.70;12.30;;;;;;;-3.71;80.85;99516.27;104638;1271;61753;-23
2022/01/13 11:03:26;;;;;;;26.70;10.80;;;;;;;-3.21;79.30;99515.11;104944;1270;74508;-23
2022/01/13 11:05:56;;;;;;;25.50;10.80;;;;;;;-2.74;77.73;99512.91;104774;1271;76126;-24
2022/01/13 11:08:39;;;;;;;33.60;14.70;;;;;;;-2.84;77.81;99501.87;104606;1272;72879;-23
2022/01/13 11:11:24;;;;;;;25.90;12.10;;;;;;;-2.99;78.73;99512.85;104763;1274;61077;-23
2022/01/13 11:13:54;;;;;;;26.90;11.60;;;;;;;-3.27;80.11;99500.29;104807;1274;61306;-23
2022/01/13 11:16:24;;;;;;;26.90;12.50;;;;;;;-3.39;80.91;99504.91;104807;1272;75505;-23
2022/01/13 11:18:53;;;;;;;26.80;12.20;;;;;;;-3.16;80.88;99487.52;104840;1271;75308;-23
2022/01/13 11:21:21;;;;;;;28.70;12.50;;;;;;;-2.68;79.24;99479.15;104810;1274;74364;-22
2022/01/13 11:23:50;;;;;;;27.60;11.90;;;;;;;-2.65;78.98;99480.61;104691;1271;61048;-23
2022/01/13 11:26:18;;;;;;;33.00;14.00;;;;;;;-2.77;79.41;99471.99;104772;1274;62082;-24
2022/01/13 11:28:47;;;;;;;32.50;14.00;;;;;;;-2.97;80.51;99466.77;105004;1274;75502;-24
2022/01/13 11:31:15;;;;;;;26.40;12.00;;;;;;;-3.18;81.30;99446.11;104749;1274;75225;-24
2022/01/13 11:33:43;;;;;;;22.80;9.30;;;;;;;-3.14;81.89;99451.83;105067;1271;73552;-24
2022/01/13 11:36:12;;;;;;;25.40;10.70;;;;;;;-2.62;80.27;99455.55;105126;1271;61027;-24
2022/01/13 11:38:55;;;;;;;25.40;12.20;;;;;;;-2.53;79.60;99459.79;105038;1271;61849;-24
2022/01/13 11:41:24;;;;;;;;;;;;;;;-2.67;79.90;99455.15;104875;1272;74423;-24
2022/01/13 11:43:53;;;;;;;20.30;9.80;;;;;;;-2.88;80.62;99451.32;104941;1274;73501;-23
2022/01/13 11:46:23;;;;;;;25.00;10.20;;;;;;;-2.98;81.19;99450.50;104814;1271;74401;-22
2022/01/13 11:49:05;;;;;;;27.90;13.80;;;;;;;-3.10;82.12;99438.48;104712;1272;61597;-22
2022/01/13 11:51:49;;;;;;;23.30;11.00;;;;;;;-2.63;81.02;99447.41;105027;1271;61078;-22
2022/01/13 11:54:32;;;;;;;20.10;10.90;;;;;;;-2.36;79.74;99449.56;104982;1274;74295;-22
2022/01/13 11:57:26;;;;;;;19.30;9.30;;;;;;;-2.53;79.92;99446.18;104931;1274;75976;-22
2022/01/13 12:00:00;;;;;;;30.00;13.60;;;;;;;-2.67;80.55;99455.83;104772;1272;74591;-24
2022/01/13 12:02:42;;;;;;;17.40;7.50;;;;;;;-2.90;81.61;99442.02;104647;1271;61141;-23
2022/01/13 12:05:17;;;;;;;23.90;10.80;;;;;;;-2.73;81.57;99427.88;104846;1272;61818;-22